Time;durP1;ratioP1;P1;durP2;ratioP2;P2;SDS_P1;SDS_P2;PMS_P1;PMS_P2;Temp;Humidity;BMP_temperature;BMP_pressure;BME280_temperature;BME280_humidity;BME280_pressure;Samples;Min_cycle;Max_cycle;Signal;HPM_P1;HPM_P2
2021/04/23 00:00:45;;;;;;;22.80;20.75;;;;;;;10.13;100.00;101238.75;5003538;28;20046;-87
2021/04/23 00:03:17;;;;;;;23.15;21.15;;;;;;;10.00;100.00;101240.28;5010723;28;20519;-86
2021/04/23 00:05:45;;;;;;;24.55;22.45;;;;;;;10.11;100.00;101233.66;5009027;28;20046;-86
2021/04/23 00:08:13;;;;;;;24.52;22.55;;;;;;;10.08;100.00;101240.16;5009596;28;20050;-87
2021/04/23 00:10:39;;;;;;;23.70;21.50;;;;;;;9.88;100.00;101246.28;5003752;28;20065;-86
2021/04/23 00:13:07;;;;;;;22.30;20.38;;;;;;;10.03;100.00;101247.03;5006809;28;20049;-86
2021/04/23 00:15:34;;;;;;;22.10;20.17;;;;;;;10.16;100.00;101246.34;5004503;28;20038;-87
2021/04/23 00:18:03;;;;;;;23.90;22.00;;;;;;;10.26;100.00;101229.13;5006809;28;20057;-86
2021/04/23 00:20:32;;;;;;;21.98;20.15;;;;;;;10.16;100.00;101236.53;5012271;28;20068;-86
2021/04/23 00:23:03;;;;;;;23.70;21.63;;;;;;;10.05;100.00;101235.22;5009336;28;20063;-86
2021/04/23 00:25:31;;;;;;;23.60;21.70;;;;;;;9.99;100.00;101236.00;5006428;28;20072;-86
2021/04/23 00:28:00;;;;;;;23.65;21.50;;;;;;;9.93;100.00;101236.75;5000878;28;20451;-87
2021/04/23 00:30:30;;;;;;;23.88;21.48;;;;;;;9.88;100.00;101233.00;5003352;28;20054;-88
2021/04/23 00:32:57;;;;;;;23.65;21.13;;;;;;;9.59;100.00;101243.53;5005392;28;20443;-86
2021/04/23 00:35:31;;;;;;;23.50;21.40;;;;;;;9.79;100.00;101238.41;5011745;28;20427;-87
2021/04/23 00:38:00;;;;;;;23.20;21.17;;;;;;;9.78;100.00;101238.63;5010774;28;20054;-86
2021/04/23 00:40:29;;;;;;;22.58;20.73;;;;;;;9.70;100.00;101236.06;5002916;28;20077;-85
2021/04/23 00:42:56;;;;;;;25.02;22.80;;;;;;;9.60;100.00;101229.25;5010605;28;20057;-86
2021/04/23 00:45:26;;;;;;;24.42;22.05;;;;;;;9.72;100.00;101229.59;4999111;28;20050;-86
2021/04/23 00:47:55;;;;;;;23.45;21.42;;;;;;;9.57;100.00;101234.91;5003637;28;20066;-87
2021/04/23 00:50:30;;;;;;;22.27;20.27;;;;;;;9.64;100.00;101227.03;5006519;28;20042;-85
2021/04/23 00:52:58;;;;;;;22.25;20.10;;;;;;;9.50;100.00;101225.22;5004879;28;20051;-86
2021/04/23 00:55:24;;;;;;;21.90;20.13;;;;;;;9.69;100.00;101224.66;5008847;28;20423;-86
2021/04/23 00:57:51;;;;;;;24.38;22.45;;;;;;;9.76;100.00;101228.19;5004989;28;20437;-87
2021/04/23 01:00:19;;;;;;;22.80;20.98;;;;;;;9.85;100.00;101221.75;5006358;28;20100;-86
2021/04/23 01:02:45;;;;;;;22.95;21.25;;;;;;;9.84;100.00;101220.13;5005768;28;20415;-87
2021/04/23 01:05:16;;;;;;;21.92;19.92;;;;;;;10.03;100.00;101229.28;5001958;28;20081;-87
2021/04/23 01:07:45;;;;;;;23.13;21.33;;;;;;;10.04;100.00;101225.59;5006667;28;20060;-86
2021/04/23 01:10:13;;;;;;;24.20;21.90;;;;;;;9.99;100.00;101225.38;5010638;28;20045;-85
2021/04/23 01:12:40;;;;;;;27.00;24.85;;;;;;;10.14;100.00;101232.47;5009045;28;20085;-85
2021/04/23 01:15:08;;;;;;;22.75;21.15;;;;;;;10.16;100.00;101231.22;5005860;28;20392;-85
2021/04/23 01:17:34;;;;;;;23.40;21.30;;;;;;;10.19;100.00;101224.72;5001178;28;20404;-85
2021/04/23 01:20:00;;;;;;;22.95;20.92;;;;;;;9.84;100.00;101233.38;5007786;28;20507;-86
2021/04/23 01:22:28;;;;;;;23.35;21.45;;;;;;;9.94;100.00;101243.69;5008107;28;20049;-87
2021/04/23 01:24:54;;;;;;;22.88;21.27;;;;;;;9.95;100.00;101252.47;5010883;28;20050;-86
2021/04/23 01:27:23;;;;;;;23.88;21.83;;;;;;;10.19;100.00;101254.75;5004509;28;20042;-86
2021/04/23 01:29:53;;;;;;;24.63;22.73;;;;;;;10.28;100.00;101243.00;5001659;28;20122;-86
2021/04/23 01:32:20;;;;;;;26.15;24.27;;;;;;;10.25;100.00;101253.16;5002568;28;20052;-86
2021/04/23 01:34:46;;;;;;;24.10;22.05;;;;;;;10.42;100.00;101253.75;5006087;28;20064;-86
2021/04/23 01:37:13;;;;;;;24.70;22.67;;;;;;;10.40;100.00;101245.16;5008990;28;20499;-86
2021/04/23 01:39:42;;;;;;;25.48;23.27;;;;;;;10.38;100.00;101261.28;5001397;28;20513;-86
2021/04/23 01:42:11;;;;;;;23.05;21.02;;;;;;;10.47;100.00;101265.44;5006585;28;20065;-87
2021/04/23 01:44:38;;;;;;;23.17;21.05;;;;;;;10.46;100.00;101260.31;5006616;28;20050;-87
2021/04/23 01:47:05;;;;;;;28.48;25.85;;;;;;;10.29;100.00;101265.09;5005282;28;20058;-87
2021/04/23 01:49:32;;;;;;;25.88;23.73;;;;;;;10.12;100.00;101259.16;5006909;28;20049;-86
2021/04/23 01:52:01;;;;;;;22.13;20.25;;;;;;;9.98;100.00;101255.56;5008767;28;20057;-86
2021/04/23 01:54:28;;;;;;;24.65;22.58;;;;;;;9.87;100.00;101253.41;5008412;28;20132;-86
2021/04/23 01:56:57;;;;;;;23.80;21.60;;;;;;;9.84;100.00;101256.44;5003933;28;20476;-86
2021/04/23 01:59:25;;;;;;;23.38;21.48;;;;;;;9.66;100.00;101256.84;5004057;28;20046;-86
2021/04/23 02:01:52;;;;;;;23.83;21.70;;;;;;;9.64;100.00;101253.56;4999996;28;20423;-86
2021/04/23 02:04:19;;;;;;;23.98;21.85;;;;;;;9.82;100.00;101248.66;5003324;28;20101;-86
2021/04/23 02:06:46;;;;;;;22.98;21.05;;;;;;;9.86;100.00;101246.44;5006623;28;20050;-87
2021/04/23 02:09:13;;;;;;;22.67;20.77;;;;;;;9.81;100.00;101247.03;5010176;28;20050;-86
2021/04/23 02:11:43;;;;;;;23.98;22.08;;;;;;;9.76;100.00;101245.94;5126937;22;20111;-87
2021/04/23 02:14:10;;;;;;;30.15;27.25;;;;;;;10.03;100.00;101241.72;5024626;28;20581;-87
2021/04/23 02:16:36;;;;;;;28.02;25.55;;;;;;;9.96;100.00;101235.53;5025753;28;20053;-86
2021/04/23 02:19:04;;;;;;;24.30;22.48;;;;;;;10.00;100.00;101227.00;5024865;28;20525;-87
2021/04/23 02:21:30;;;;;;;24.88;22.80;;;;;;;10.03;100.00;101234.59;5029924;28;20105;-87
2021/04/23 02:23:56;;;;;;;24.23;22.13;;;;;;;9.98;100.00;101233.50;5020188;28;20045;-86
2021/04/23 02:26:23;;;;;;;23.52;21.63;;;;;;;9.81;100.00;101236.41;5022242;28;20047;-86
2021/04/23 02:28:51;;;;;;;22.90;20.80;;;;;;;9.86;100.00;101241.13;5024459;28;20494;-85
2021/04/23 02:31:20;;;;;;;23.13;21.08;;;;;;;9.93;100.00;101243.88;5030496;28;20045;-86
2021/04/23 02:33:50;;;;;;;23.40;21.35;;;;;;;9.86;100.00;101242.00;5021818;28;20092;-86
2021/04/23 02:36:17;;;;;;;24.02;21.83;;;;;;;9.60;100.00;101241.69;5020874;28;20046;-86
2021/04/23 02:38:44;;;;;;;22.90;20.80;;;;;;;9.49;100.00;101242.16;5020859;28;20053;-86
2021/04/23 02:41:12;;;;;;;23.40;21.25;;;;;;;9.36;100.00;101245.47;5022591;28;20167;-86
2021/04/23 02:43:41;;;;;;;20.70;18.83;;;;;;;9.63;100.00;101244.78;5025565;28;20046;-86
2021/04/23 02:46:08;;;;;;;22.90;20.80;;;;;;;9.60;100.00;101247.81;5028391;28;20050;-86
2021/04/23 02:48:39;;;;;;;22.92;21.10;;;;;;;9.83;100.00;101262.75;5021166;28;20434;-86
2021/04/23 02:51:07;;;;;;;22.73;20.73;;;;;;;9.87;100.00;101245.47;5024965;28;20045;-87
2021/04/23 02:53:35;;;;;;;21.70;19.60;;;;;;;10.07;100.00;101259.72;5032585;28;20043;-86
2021/04/23 02:56:02;;;;;;;21.85;20.02;;;;;;;10.11;100.00;101257.53;5020811;28;20049;-86
2021/04/23 02:58:29;;;;;;;22.70;20.65;;;;;;;10.11;100.00;101254.06;5021047;28;20042;-87
2021/04/23 03:01:00;;;;;;;23.73;21.63;;;;;;;10.03;100.00;101253.16;5021716;28;20046;-87
2021/04/23 03:03:28;;;;;;;28.75;25.90;;;;;;;10.06;100.00;101262.59;5028026;28;20057;-86
2021/04/23 03:05:56;;;;;;;23.48;21.05;;;;;;;9.75;100.00;101266.34;5026087;28;20526;-85
2021/04/23 03:08:23;;;;;;;23.30;21.30;;;;;;;9.68;100.00;101275.22;5014824;28;20046;-87
2021/04/23 03:10:55;;;;;;;23.65;21.33;;;;;;;9.58;100.00;101265.72;5020734;28;20049;-87
2021/04/23 03:13:24;;;;;;;24.55;22.15;;;;;;;9.51;100.00;101270.13;5043634;28;20064;-86
2021/04/23 03:15:51;;;;;;;23.83;21.75;;;;;;;9.69;100.00;101274.22;5036232;28;20049;-87
2021/04/23 03:18:20;;;;;;;24.70;22.67;;;;;;;9.80;100.00;101273.72;5047649;28;20052;-86
2021/04/23 03:20:48;;;;;;;25.30;22.90;;;;;;;9.70;100.00;101284.66;5044371;28;20743;-86
2021/04/23 03:23:15;;;;;;;24.02;21.60;;;;;;;9.70;100.00;101283.81;5042376;28;20065;-88
2021/04/23 03:25:42;;;;;;;24.73;22.30;;;;;;;9.81;100.00;101299.28;5043662;28;20046;-86
2021/04/23 03:28:09;;;;;;;22.77;20.38;;;;;;;9.99;100.00;101301.50;5044335;28;20429;-85
2021/04/23 03:30:40;;;;;;;37.08;32.80;;;;;;;9.84;100.00;101312.16;5037484;28;20053;-87
2021/04/23 03:33:07;;;;;;;25.85;23.27;;;;;;;9.85;100.00;101317.25;5040317;28;20054;-86
2021/04/23 03:35:34;;;;;;;24.90;22.30;;;;;;;9.77;100.00;101316.53;5049914;28;20049;-87
2021/04/23 03:38:01;;;;;;;24.17;21.98;;;;;;;9.81;100.00;101323.16;5043148;28;20052;-86
2021/04/23 03:40:30;;;;;;;22.55;20.23;;;;;;;9.88;100.00;101325.88;5043092;28;20041;-86
2021/04/23 03:42:58;;;;;;;26.90;24.33;;;;;;;9.98;100.00;101323.72;5038797;28;20064;-87
2021/04/23 03:45:25;;;;;;;29.67;26.67;;;;;;;9.97;100.00;101324.75;5037431;28;20430;-86
2021/04/23 03:47:52;;;;;;;28.92;25.75;;;;;;;10.06;100.00;101327.09;5039307;28;20041;-86
2021/04/23 03:50:21;;;;;;;27.30;24.70;;;;;;;10.03;100.00;101332.78;5046545;28;20048;-86
2021/04/23 03:52:49;;;;;;;33.92;26.90;;;;;;;10.04;100.00;101333.59;5035920;28;20121;-85
2021/04/23 03:55:22;;;;;;;29.27;26.15;;;;;;;10.00;100.00;101338.47;5041378;28;20049;-87
2021/04/23 03:57:50;;;;;;;33.63;27.08;;;;;;;9.96;100.00;101337.19;5041072;28;20563;-87
2021/04/23 04:00:26;;;;;;;31.08;26.25;;;;;;;10.01;100.00;101342.75;5041262;28;20045;-86
2021/04/23 04:02:52;;;;;;;31.20;27.08;;;;;;;10.02;100.00;101348.91;5041122;28;20056;-86
2021/04/23 04:05:18;;;;;;;47.83;37.75;;;;;;;10.02;100.00;101348.91;5041872;28;20057;-86
2021/04/23 04:07:45;;;;;;;42.40;38.13;;;;;;;10.05;100.00;101352.00;5045346;28;20045;-87
2021/04/23 04:10:13;;;;;;;56.97;47.55;;;;;;;9.95;100.00;101353.28;5044344;28;20053;-86
2021/04/23 04:12:39;;;;;;;60.58;47.08;;;;;;;9.95;100.00;101367.38;5038637;28;20114;-88
2021/04/23 04:15:07;;;;;;;52.22;43.63;;;;;;;10.14;100.00;101370.47;5041036;28;20052;-87
2021/04/23 04:17:34;;;;;;;47.97;41.13;;;;;;;10.12;100.00;101367.19;5040903;28;20045;-86
2021/04/23 04:20:00;;;;;;;50.05;40.67;;;;;;;10.20;100.00;101362.59;5049639;28;20052;-86
2021/04/23 04:25:13;;;;;;;42.67;29.33;;;;;;;10.10;100.00;101372.66;5046840;28;20060;-86
2021/04/23 04:27:41;;;;;;;43.15;28.27;;;;;;;10.27;100.00;101374.13;5031650;28;20048;-86
2021/04/23 04:33:34;;;;;;;28.83;25.67;;;;;;;10.45;100.00;101370.22;4930392;29;20043;-85
2021/04/23 04:36:00;;;;;;;38.90;31.23;;;;;;;10.36;100.00;101361.56;5013473;28;20563;-86
2021/04/23 04:38:27;;;;;;;32.65;29.10;;;;;;;10.39;100.00;101368.31;5030543;28;20351;-85
2021/04/23 04:40:57;;;;;;;31.02;27.55;;;;;;;10.56;100.00;101369.72;5059124;28;20056;-87
2021/04/23 04:43:25;;;;;;;33.25;28.38;;;;;;;10.40;100.00;101369.97;5051542;28;20068;-86
2021/04/23 04:46:13;;;;;;;29.58;26.52;;;;;;;10.58;100.00;101362.38;5035698;28;20103;-84
2021/04/23 04:48:44;;;;;;;25.77;23.40;;;;;;;10.47;100.00;101370.88;5045953;28;20068;-85
2021/04/23 04:51:15;;;;;;;28.02;25.20;;;;;;;10.59;100.00;101374.66;5045035;28;20049;-85
2021/04/23 04:53:42;;;;;;;29.20;24.77;;;;;;;10.49;100.00;101364.34;5048888;28;20049;-86
2021/04/23 04:56:08;;;;;;;30.02;27.23;;;;;;;10.49;100.00;101374.94;5043077;28;20529;-85
2021/04/23 04:58:37;;;;;;;27.85;25.25;;;;;;;10.66;100.00;101372.88;5045502;28;20041;-86
2021/04/23 05:01:27;;;;;;;25.60;23.20;;;;;;;10.57;100.00;101371.38;5038998;28;20041;-86
2021/04/23 05:03:57;;;;;;;26.13;23.63;;;;;;;10.46;100.00;101379.81;5031869;28;20075;-86
2021/04/23 05:06:24;;;;;;;25.90;23.13;;;;;;;10.68;100.00;101378.84;5057217;28;20502;-85
2021/04/23 05:08:54;;;;;;;26.60;23.92;;;;;;;10.69;100.00;101377.00;5039375;28;20517;-85
2021/04/23 05:11:23;;;;;;;25.75;23.35;;;;;;;10.58;100.00;101370.34;5052336;28;20548;-85
2021/04/23 05:13:52;;;;;;;25.08;22.52;;;;;;;10.64;100.00;101382.88;5040719;28;20045;-85
2021/04/23 05:16:26;;;;;;;22.48;20.38;;;;;;;10.75;100.00;101390.34;5047699;28;20041;-86
2021/04/23 05:18:57;;;;;;;24.27;22.13;;;;;;;10.84;100.00;101385.72;5039119;28;20514;-86
2021/04/23 05:21:25;;;;;;;24.23;21.73;;;;;;;10.78;100.00;101386.47;5062530;28;20075;-85
2021/04/23 05:23:52;;;;;;;24.30;21.75;;;;;;;10.84;100.00;101391.03;5035644;28;20045;-85
2021/04/23 05:26:18;;;;;;;25.27;22.75;;;;;;;10.84;100.00;101396.34;5047192;28;20100;-85
2021/04/23 05:28:47;;;;;;;25.55;23.00;;;;;;;10.84;100.00;101400.84;5063794;28;20746;-86
2021/04/23 05:31:23;;;;;;;25.25;22.88;;;;;;;11.47;100.00;101409.72;5056243;28;20049;-85
2021/04/23 05:33:50;;;;;;;26.08;23.65;;;;;;;11.13;100.00;101405.16;5051341;28;20045;-86
2021/04/23 05:36:17;;;;;;;27.98;25.17;;;;;;;11.08;100.00;101410.25;5035700;28;20564;-86
2021/04/23 05:38:43;;;;;;;29.88;26.90;;;;;;;11.16;100.00;101405.59;5046432;28;20049;-85
2021/04/23 05:41:10;;;;;;;77.20;64.78;;;;;;;11.18;100.00;101405.41;5060109;28;20045;-87
2021/04/23 05:43:36;;;;;;;43.95;39.13;;;;;;;11.09;100.00;101404.72;5039762;28;20068;-85
2021/04/23 05:46:03;;;;;;;27.65;24.77;;;;;;;11.23;100.00;101414.47;5046759;28;20049;-85
2021/04/23 05:48:32;;;;;;;31.38;28.17;;;;;;;11.26;100.00;101418.56;5052862;28;20045;-85
2021/04/23 05:51:00;;;;;;;32.45;28.83;;;;;;;11.32;100.00;101412.47;5050304;28;20059;-86
2021/04/23 05:53:30;;;;;;;28.35;25.77;;;;;;;11.29;100.00;101417.38;5053997;28;20049;-85
2021/04/23 05:56:00;;;;;;;44.78;39.60;;;;;;;11.43;100.00;101419.09;5049954;28;20429;-85
2021/04/23 05:58:28;;;;;;;63.45;43.72;;;;;;;11.54;100.00;101425.72;5050547;28;20057;-85
2021/04/23 06:00:56;;;;;;;30.30;26.83;;;;;;;11.68;100.00;101420.28;5041236;28;20054;-85
2021/04/23 06:03:24;;;;;;;31.27;28.15;;;;;;;11.71;100.00;101424.41;5047050;28;20417;-85
2021/04/23 06:05:53;;;;;;;31.52;28.48;;;;;;;11.89;100.00;101424.72;5043893;28;20046;-86
2021/04/23 06:08:24;;;;;;;47.35;34.58;;;;;;;12.02;100.00;101429.28;5053446;28;20049;-86
2021/04/23 06:10:53;;;;;;;36.35;32.25;;;;;;;11.89;100.00;101418.56;5041029;28;20113;-86
2021/04/23 06:13:20;;;;;;;32.47;29.08;;;;;;;12.02;100.00;101428.47;5033569;28;20049;-86
2021/04/23 06:15:48;;;;;;;32.25;29.05;;;;;;;12.23;100.00;101427.53;5047917;28;20036;-85
2021/04/23 06:18:17;;;;;;;28.35;25.55;;;;;;;12.17;100.00;101429.16;5050111;28;20288;-85
2021/04/23 06:21:01;;;;;;;27.65;25.23;;;;;;;12.17;100.00;101421.16;5046174;28;20051;-86
2021/04/23 06:23:32;;;;;;;27.98;25.52;;;;;;;12.18;100.00;101420.13;5040595;28;21678;-86
2021/04/23 06:26:31;;;;;;;29.15;26.77;;;;;;;12.15;100.00;101432.00;5045472;28;20422;-86
2021/04/23 06:29:02;;;;;;;29.70;27.25;;;;;;;12.01;100.00;101432.97;5041475;28;20053;-85
2021/04/23 06:31:30;;;;;;;28.00;25.85;;;;;;;12.12;100.00;101431.56;5048454;28;20053;-85
2021/04/23 06:33:57;;;;;;;28.45;26.13;;;;;;;11.98;100.00;101427.22;5003365;28;20318;-85
2021/04/23 06:36:24;;;;;;;27.88;25.58;;;;;;;11.93;100.00;101427.00;5047472;28;20045;-86
2021/04/23 06:38:51;;;;;;;29.13;26.52;;;;;;;11.95;100.00;101433.75;5041202;28;20054;-86
2021/04/23 06:41:18;;;;;;;31.42;28.83;;;;;;;11.83;100.00;101430.81;5050558;28;20049;-85
2021/04/23 06:43:47;;;;;;;31.75;29.15;;;;;;;11.93;100.00;101430.47;5055256;28;20485;-87
2021/04/23 06:46:16;;;;;;;29.15;26.95;;;;;;;11.99;100.00;101435.00;5050047;28;20048;-87
2021/04/23 06:48:51;;;;;;;32.55;29.65;;;;;;;11.97;100.00;101446.88;5047865;28;20449;-86
2021/04/23 06:51:20;;;;;;;29.58;27.30;;;;;;;12.13;100.00;101460.69;5048349;28;20042;-85
2021/04/23 06:53:46;;;;;;;28.05;25.48;;;;;;;12.16;100.00;101456.78;5048779;28;20550;-85
2021/04/23 06:56:16;;;;;;;27.65;25.45;;;;;;;12.08;100.00;101462.28;5061651;28;20136;-85
2021/04/23 06:58:46;;;;;;;29.13;26.52;;;;;;;12.03;100.00;101457.53;5054695;28;20048;-85
2021/04/23 07:01:14;;;;;;;30.38;27.92;;;;;;;12.00;100.00;101455.28;5036777;28;20054;-86
2021/04/23 07:03:42;;;;;;;29.35;27.05;;;;;;;11.82;100.00;101454.94;5035093;28;20485;-85
2021/04/23 07:06:10;;;;;;;26.05;23.95;;;;;;;11.79;100.00;101453.50;5041615;28;20098;-86
2021/04/23 07:08:37;;;;;;;35.65;32.05;;;;;;;11.79;100.00;101458.00;5043321;28;20044;-87
2021/04/23 07:11:08;;;;;;;27.92;25.55;;;;;;;11.75;100.00;101459.41;5046042;28;20114;-84
2021/04/23 07:13:38;;;;;;;29.07;26.77;;;;;;;11.68;100.00;101457.53;5046871;28;20683;-85
2021/04/23 07:16:12;;;;;;;27.52;25.30;;;;;;;11.85;100.00;101463.38;5062531;28;20056;-85
2021/04/23 07:18:39;;;;;;;26.83;24.50;;;;;;;11.72;100.00;101462.47;5045916;28;20061;-85
2021/04/23 07:21:08;;;;;;;34.80;30.38;;;;;;;11.70;100.00;101467.97;5043411;28;20510;-86
2021/04/23 07:23:36;;;;;;;31.25;28.35;;;;;;;11.78;100.00;101464.34;5038962;28;20041;-85
2021/04/23 07:26:02;;;;;;;29.83;27.33;;;;;;;11.75;100.00;101468.22;5045700;28;20054;-86
2021/04/23 07:28:29;;;;;;;25.70;23.48;;;;;;;11.94;100.00;101476.53;5033897;28;20045;-86
2021/04/23 07:30:56;;;;;;;26.95;24.60;;;;;;;11.99;100.00;101477.59;5035820;28;20049;-86
2021/04/23 07:33:22;;;;;;;29.33;27.02;;;;;;;11.72;100.00;101473.13;5046563;28;20059;-86
2021/04/23 07:35:54;;;;;;;28.80;26.50;;;;;;;11.95;100.00;101479.00;5038045;28;20056;-85
2021/04/23 07:38:21;;;;;;;30.02;27.65;;;;;;;11.95;100.00;101479.00;5045303;28;20591;-86
2021/04/23 07:40:50;;;;;;;29.08;26.65;;;;;;;12.03;100.00;101491.34;5042415;28;20528;-85
2021/04/23 07:43:19;;;;;;;29.92;27.42;;;;;;;12.14;100.00;101499.59;5057759;28;20500;-85
2021/04/23 07:45:46;;;;;;;29.63;27.33;;;;;;;12.18;100.00;101494.69;5045506;28;20045;-85
2021/04/23 07:48:12;;;;;;;27.80;25.40;;;;;;;12.18;100.00;101499.22;5045774;28;20049;-86
2021/04/23 07:50:39;;;;;;;31.42;28.92;;;;;;;12.35;100.00;101500.53;5047903;28;20056;-86
2021/04/23 07:53:26;;;;;;;30.52;27.85;;;;;;;12.20;100.00;101499.84;5047563;28;20079;-85
2021/04/23 07:55:54;;;;;;;28.02;25.85;;;;;;;12.00;100.00;101502.38;5046566;28;20051;-85
2021/04/23 07:58:23;;;;;;;29.33;27.00;;;;;;;12.09;100.00;101511.84;5047667;28;20052;-85
2021/04/23 08:00:55;;;;;;;29.83;27.27;;;;;;;12.11;100.00;101501.84;5043690;28;20053;-85
2021/04/23 08:03:23;;;;;;;28.98;26.67;;;;;;;12.20;100.00;101510.50;5039536;28;20049;-86
2021/04/23 08:05:52;;;;;;;26.00;23.95;;;;;;;12.11;100.00;101510.66;5039584;28;20577;-86
2021/04/23 08:08:22;;;;;;;25.02;22.80;;;;;;;12.21;100.00;101506.81;5044783;28;20049;-86
2021/04/23 08:10:53;;;;;;;25.35;23.10;;;;;;;12.20;100.00;101510.50;5050214;28;20618;-85
2021/04/23 08:13:25;;;;;;;25.88;23.67;;;;;;;12.14;100.00;101514.75;5037027;28;20541;-85
2021/04/23 08:15:52;;;;;;;27.63;25.30;;;;;;;12.15;100.00;101514.56;5053577;28;20471;-86
2021/04/23 08:18:20;;;;;;;29.10;26.52;;;;;;;12.08;100.00;101521.69;5046401;28;20052;-85
2021/04/23 08:20:47;;;;;;;27.92;25.67;;;;;;;12.17;100.00;101519.69;5043940;28;20067;-88
2021/04/23 08:23:17;;;;;;;25.45;22.73;;;;;;;12.05;100.00;101521.25;5056253;28;20063;-86
2021/04/23 08:25:45;;;;;;;29.42;26.52;;;;;;;12.38;100.00;101526.78;5040634;28;20052;-85
2021/04/23 08:28:21;;;;;;;28.55;26.08;;;;;;;12.21;100.00;101533.44;5044372;28;20053;-85
2021/04/23 08:30:50;;;;;;;24.15;21.75;;;;;;;12.13;100.00;101535.25;5053736;28;20056;-85
2021/04/23 08:33:21;;;;;;;25.55;23.23;;;;;;;12.35;100.00;101537.81;5035379;28;20077;-85
2021/04/23 08:35:50;;;;;;;26.92;24.45;;;;;;;12.34;100.00;101542.31;5054709;28;20077;-85
2021/04/23 08:38:24;;;;;;;26.23;23.92;;;;;;;12.43;100.00;101542.16;5046466;28;20077;-86
2021/04/23 08:41:03;;;;;;;25.65;23.30;;;;;;;12.51;100.00;101540.13;5037677;28;20111;-86
2021/04/23 08:43:37;;;;;;;31.30;24.95;;;;;;;12.63;100.00;101536.91;5048044;28;20457;-86
2021/04/23 08:46:04;;;;;;;28.33;25.70;;;;;;;12.60;100.00;101538.13;5041838;28;20057;-86
2021/04/23 08:48:33;;;;;;;25.85;23.65;;;;;;;12.53;100.00;101529.28;5035127;28;20045;-85
2021/04/23 08:51:12;;;;;;;25.83;23.30;;;;;;;12.28;100.00;101531.63;5034619;28;20048;-86
2021/04/23 08:53:41;;;;;;;26.60;24.10;;;;;;;12.26;100.00;101528.34;5037798;28;20099;-85
2021/04/23 08:56:13;;;;;;;26.45;24.05;;;;;;;12.31;100.00;101534.69;5036936;28;20484;-86
2021/04/23 08:58:42;;;;;;;23.40;21.30;;;;;;;12.48;100.00;101524.53;5034573;28;20064;-85
2021/04/23 09:01:09;;;;;;;25.35;22.98;;;;;;;12.47;100.00;101530.09;5037270;28;20044;-85
2021/04/23 09:03:56;;;;;;;25.40;23.10;;;;;;;12.55;100.00;101529.91;5047750;28;20053;-87
2021/04/23 09:06:33;;;;;;;26.50;24.05;;;;;;;12.49;100.00;101520.84;5036125;28;20050;-85
2021/04/23 09:09:05;;;;;;;23.75;21.65;;;;;;;12.38;100.00;101524.91;5039392;28;20048;-85
2021/04/23 09:11:40;;;;;;;25.25;23.15;;;;;;;12.56;100.00;101523.56;5048280;28;20052;-85
2021/04/23 09:14:11;;;;;;;25.80;23.80;;;;;;;12.50;100.00;101519.84;5039392;28;20049;-85
2021/04/23 09:16:56;;;;;;;23.98;21.98;;;;;;;12.53;100.00;101521.31;5042503;28;20049;-85
2021/04/23 09:19:25;;;;;;;23.83;22.02;;;;;;;12.44;100.00;101511.84;5046011;28;20132;-86
2021/04/23 09:22:03;;;;;;;25.50;23.50;;;;;;;12.63;100.00;101513.75;5045174;28;20057;-86
2021/04/23 09:24:37;;;;;;;23.00;21.23;;;;;;;12.44;100.00;101510.00;5038463;28;20104;-85
2021/04/23 09:27:18;;;;;;;24.38;22.58;;;;;;;12.38;100.00;101503.59;5040111;28;20106;-85
2021/04/23 09:29:46;;;;;;;26.80;24.63;;;;;;;12.34;100.00;101501.53;5040856;28;20102;-85
2021/04/23 09:32:14;;;;;;;25.05;23.17;;;;;;;12.46;100.00;101491.13;5038657;28;20437;-87
2021/04/23 09:34:48;;;;;;;26.98;24.80;;;;;;;12.66;100.00;101478.69;5043470;28;20048;-86
2021/04/23 09:37:15;;;;;;;26.25;24.17;;;;;;;12.70;100.00;101479.94;5045584;28;20045;-86
2021/04/23 09:39:46;;;;;;;24.40;22.55;;;;;;;12.61;100.00;101479.28;5040378;28;20052;-86
2021/04/23 09:42:15;;;;;;;23.90;22.13;;;;;;;12.71;100.00;101480.75;5044545;28;20061;-86
2021/04/23 09:44:43;;;;;;;25.15;23.27;;;;;;;12.73;100.00;101474.19;5043931;28;20059;-87
2021/04/23 09:47:13;;;;;;;23.88;21.95;;;;;;;12.87;100.00;101475.06;4977237;28;20072;-85
2021/04/23 09:49:40;;;;;;;24.60;22.38;;;;;;;12.58;100.00;101473.53;5049823;28;20048;-86
2021/04/23 09:52:09;;;;;;;27.48;25.17;;;;;;;12.43;100.00;101480.88;5039665;28;20048;-86
2021/04/23 09:54:37;;;;;;;26.50;24.17;;;;;;;12.77;100.00;101469.31;5043315;28;20064;-86
2021/04/23 09:57:18;;;;;;;27.27;24.88;;;;;;;12.81;100.00;101467.88;5042080;28;20534;-86
2021/04/23 09:59:53;;;;;;;26.40;24.30;;;;;;;12.66;100.00;101465.38;5042700;28;20064;-86
2021/04/23 10:05:31;;;;;;;26.73;24.50;;;;;;;12.79;100.00;101460.06;5044615;28;20060;-86
2021/04/23 10:08:07;;;;;;;25.60;23.48;;;;;;;12.87;100.00;101460.91;5037708;28;20049;-86
2021/04/23 10:10:39;;;;;;;26.42;24.30;;;;;;;13.04;100.00;101456.81;5038608;28;20069;-86
2021/04/23 10:13:15;;;;;;;24.63;22.80;;;;;;;13.24;100.00;101452.31;5049468;28;20055;-86
2021/04/23 10:15:47;;;;;;;24.83;22.98;;;;;;;13.49;100.00;101449.03;5043197;28;20135;-85
2021/04/23 10:18:22;;;;;;;25.95;24.15;;;;;;;13.51;100.00;101453.13;5039164;28;20715;-86
2021/04/23 10:20:59;;;;;;;27.08;25.23;;;;;;;13.67;100.00;101454.53;5038133;28;21008;-86
2021/04/23 10:23:37;;;;;;;27.38;25.67;;;;;;;13.96;100.00;101455.09;5046164;28;20144;-86
2021/04/23 10:26:05;;;;;;;27.50;25.60;;;;;;;14.04;100.00;101448.69;5044749;28;20049;-85
2021/04/23 10:28:38;;;;;;;34.65;31.15;;;;;;;13.90;100.00;101448.75;5048369;28;20045;-85
2021/04/23 10:31:07;;;;;;;29.17;26.70;;;;;;;13.88;100.00;101441.97;5047682;28;20071;-87
2021/04/23 10:33:34;;;;;;;28.25;26.42;;;;;;;13.94;100.00;101441.94;5048353;28;20080;-86
2021/04/23 10:36:02;;;;;;;26.33;24.48;;;;;;;14.10;100.00;101445.19;5050731;28;20049;-85
2021/04/23 10:38:37;;;;;;;27.10;25.30;;;;;;;13.93;100.00;101450.19;5031945;28;20127;-85
2021/04/23 10:41:06;;;;;;;25.45;23.95;;;;;;;13.91;100.00;101450.38;5048254;28;20041;-86
2021/04/23 10:43:40;;;;;;;25.23;23.73;;;;;;;13.92;100.00;101445.88;5057432;28;20051;-85
2021/04/23 10:46:14;;;;;;;25.58;23.98;;;;;;;14.32;100.00;101438.53;5052983;28;20049;-85
2021/04/23 10:48:42;;;;;;;25.90;24.40;;;;;;;14.54;100.00;101438.22;5042957;28;20084;-85
2021/04/23 10:51:23;;;;;;;25.75;24.15;;;;;;;14.45;100.00;101434.94;5042821;28;20085;-86
2021/04/23 10:53:51;;;;;;;23.15;21.75;;;;;;;14.47;100.00;101440.91;5030117;28;20107;-86
2021/04/23 10:56:26;;;;;;;23.38;21.98;;;;;;;14.33;100.00;101442.00;5046521;28;20326;-88
2021/04/23 10:58:54;;;;;;;25.77;24.17;;;;;;;14.29;100.00;101436.28;5047950;28;20049;-85
2021/04/23 11:01:43;;;;;;;26.23;24.63;;;;;;;14.37;100.00;101428.03;5047763;28;20048;-86
2021/04/23 11:04:19;;;;;;;27.33;25.65;;;;;;;14.37;100.00;101432.53;5048474;28;20503;-86
2021/04/23 11:07:00;;;;;;;28.67;26.85;;;;;;;14.42;100.00;101435.38;5050840;28;20057;-86
2021/04/23 11:09:33;;;;;;;30.75;28.80;;;;;;;14.39;100.00;101433.13;5050371;28;20498;-87
2021/04/23 11:12:19;;;;;;;;;;;;;;;14.52;100.00;101433.09;5048429;28;20053;-86
2021/04/23 11:15:18;;;;;;;28.20;26.38;;;;;;;14.79;100.00;101433.75;5043500;28;19921;-86
2021/04/23 11:17:51;;;;;;;30.55;28.40;;;;;;;15.04;100.00;101423.09;5052887;28;20053;-86
2021/04/23 11:20:28;;;;;;;30.98;28.98;;;;;;;15.31;100.00;101423.69;5051698;28;20067;-86
2021/04/23 11:23:02;;;;;;;32.38;30.17;;;;;;;15.20;100.00;101418.22;5047665;28;20501;-87
2021/04/23 11:25:29;;;;;;;29.85;28.05;;;;;;;15.21;100.00;101409.13;5049055;28;20052;-86